sensor_id;sensor_type;location;lat;lon;timestamp;pressure;altitude;pressure_sealevel;temperature;humidity
49529;BME280;35423;37.320;-121.762;2023-04-05T00:00:59;100566.37;;;34.13;5.78
49529;BME280;35423;37.320;-121.762;2023-04-05T00:03:27;100566.79;;;33.72;5.90
49529;BME280;35423;37.320;-121.762;2023-04-05T00:05:59;100572.44;;;33.69;5.98
49529;BME280;35423;37.320;-121.762;2023-04-05T00:08:19;100573.64;;;33.00;6.31
49529;BME280;35423;37.320;-121.762;2023-04-05T00:10:45;100576.56;;;32.97;6.44
49529;BME280;35423;37.320;-121.762;2023-04-05T00:13:18;100574.01;;;32.92;6.40
49529;BME280;35423;37.320;-121.762;2023-04-05T00:15:56;100577.79;;;32.58;6.47
49529;BME280;35423;37.320;-121.762;2023-04-05T00:18:22;100576.68;;;32.21;6.59
49529;BME280;35423;37.320;-121.762;2023-04-05T00:20:53;100575.71;;;31.87;6.80
49529;BME280;35423;37.320;-121.762;2023-04-05T00:23:21;100574.59;;;31.71;6.96
49529;BME280;35423;37.320;-121.762;2023-04-05T00:25:46;100576.07;;;31.00;7.13
49529;BME280;35423;37.320;-121.762;2023-04-05T00:28:12;100574.02;;;31.05;7.45
49529;BME280;35423;37.320;-121.762;2023-04-05T00:30:39;100579.32;;;30.89;7.59
49529;BME280;35423;37.320;-121.762;2023-04-05T00:33:06;100578.53;;;30.64;7.56
49529;BME280;35423;37.320;-121.762;2023-04-05T00:35:33;100578.11;;;30.36;7.49
49529;BME280;35423;37.320;-121.762;2023-04-05T00:37:59;100579.14;;;30.06;7.63
49529;BME280;35423;37.320;-121.762;2023-04-05T00:40:24;100579.51;;;30.01;7.79
49529;BME280;35423;37.320;-121.762;2023-04-05T00:42:57;100580.80;;;30.11;7.73
49529;BME280;35423;37.320;-121.762;2023-04-05T00:45:23;100580.69;;;29.92;7.62
49529;BME280;35423;37.320;-121.762;2023-04-05T00:47:49;100577.67;;;29.72;7.61
49529;BME280;35423;37.320;-121.762;2023-04-05T00:50:21;100577.60;;;29.45;7.64
49529;BME280;35423;37.320;-121.762;2023-04-05T00:52:49;100583.22;;;29.13;7.70
49529;BME280;35423;37.320;-121.762;2023-04-05T00:55:14;100582.49;;;28.91;7.82
49529;BME280;35423;37.320;-121.762;2023-04-05T00:57:42;100584.83;;;28.75;7.85
49529;BME280;35423;37.320;-121.762;2023-04-05T01:00:08;100585.88;;;28.58;7.76
49529;BME280;35423;37.320;-121.762;2023-04-05T01:02:35;100580.09;;;28.55;7.86
49529;BME280;35423;37.320;-121.762;2023-04-05T01:05:03;100584.10;;;28.41;7.99
49529;BME280;35423;37.320;-121.762;2023-04-05T01:07:37;100582.13;;;28.50;8.19
49529;BME280;35423;37.320;-121.762;2023-04-05T01:10:00;100583.15;;;28.00;8.42
49529;BME280;35423;37.320;-121.762;2023-04-05T01:12:28;100582.48;;;28.11;8.62
49529;BME280;35423;37.320;-121.762;2023-04-05T01:14:52;100586.16;;;27.96;8.63
49529;BME280;35423;37.320;-121.762;2023-04-05T01:17:21;100585.93;;;27.83;8.78
49529;BME280;35423;37.320;-121.762;2023-04-05T01:19:44;100590.21;;;27.70;8.96
49529;BME280;35423;37.320;-121.762;2023-04-05T01:27:17;100596.60;;;27.55;9.71
49529;BME280;35423;37.320;-121.762;2023-04-05T01:29:46;100594.14;;;27.02;9.94
49529;BME280;35423;37.320;-121.762;2023-04-05T01:32:14;100597.13;;;27.11;10.06
49529;BME280;35423;37.320;-121.762;2023-04-05T01:34:47;100599.11;;;26.92;10.13
49529;BME280;35423;37.320;-121.762;2023-04-05T01:37:12;100602.91;;;26.68;10.28
49529;BME280;35423;37.320;-121.762;2023-04-05T01:39:36;100601.79;;;26.52;10.43
49529;BME280;35423;37.320;-121.762;2023-04-05T01:42:04;100598.10;;;26.27;10.60
49529;BME280;35423;37.320;-121.762;2023-04-05T01:44:29;100597.70;;;26.10;10.75
49529;BME280;35423;37.320;-121.762;2023-04-05T01:46:57;100595.59;;;26.32;10.86
49529;BME280;35423;37.320;-121.762;2023-04-05T01:49:25;100597.65;;;25.67;10.93
49529;BME280;35423;37.320;-121.762;2023-04-05T01:51:51;100600.59;;;25.95;11.08
49529;BME280;35423;37.320;-121.762;2023-04-05T01:54:20;100599.93;;;25.87;11.18
49529;BME280;35423;37.320;-121.762;2023-04-05T01:57:01;100604.27;;;25.71;11.31
49529;BME280;35423;37.320;-121.762;2023-04-05T01:59:26;100604.39;;;25.52;11.38
49529;BME280;35423;37.320;-121.762;2023-04-05T02:01:52;100603.50;;;25.37;11.45
49529;BME280;35423;37.320;-121.762;2023-04-05T02:04:22;100607.68;;;25.53;11.62
49529;BME280;35423;37.320;-121.762;2023-04-05T02:06:49;100607.07;;;25.42;11.78
49529;BME280;35423;37.320;-121.762;2023-04-05T02:09:15;100607.69;;;24.96;11.81
49529;BME280;35423;37.320;-121.762;2023-04-05T02:11:44;100605.31;;;25.24;11.66
49529;BME280;35423;37.320;-121.762;2023-04-05T02:14:12;100606.28;;;24.75;11.77
49529;BME280;35423;37.320;-121.762;2023-04-05T02:16:42;100604.56;;;24.79;11.99
49529;BME280;35423;37.320;-121.762;2023-04-05T02:19:09;100611.58;;;24.53;12.24
49529;BME280;35423;37.320;-121.762;2023-04-05T02:21:34;100609.12;;;24.19;12.55
49529;BME280;35423;37.320;-121.762;2023-04-05T02:24:01;100614.09;;;24.22;12.81
49529;BME280;35423;37.320;-121.762;2023-04-05T02:26:32;100611.92;;;24.10;13.05
49529;BME280;35423;37.320;-121.762;2023-04-05T02:29:00;100611.04;;;23.88;13.32
49529;BME280;35423;37.320;-121.762;2023-04-05T02:31:31;100612.07;;;23.73;13.68
49529;BME280;35423;37.320;-121.762;2023-04-05T02:33:59;100612.18;;;23.55;14.00
49529;BME280;35423;37.320;-121.762;2023-04-05T02:36:29;100617.87;;;23.57;14.12
49529;BME280;35423;37.320;-121.762;2023-04-05T02:38:56;100623.09;;;23.33;14.35
49529;BME280;35423;37.320;-121.762;2023-04-05T02:41:22;100626.82;;;23.37;14.55
49529;BME280;35423;37.320;-121.762;2023-04-05T02:43:48;100630.32;;;23.05;14.71
49529;BME280;35423;37.320;-121.762;2023-04-05T02:46:13;100633.62;;;22.78;14.77
49529;BME280;35423;37.320;-121.762;2023-04-05T02:48:42;100634.99;;;22.83;14.87
49529;BME280;35423;37.320;-121.762;2023-04-05T02:51:14;100636.03;;;22.48;14.94
49529;BME280;35423;37.320;-121.762;2023-04-05T02:53:39;100638.48;;;22.76;15.19
49529;BME280;35423;37.320;-121.762;2023-04-05T02:56:05;100643.58;;;22.50;15.39
49529;BME280;35423;37.320;-121.762;2023-04-05T02:58:32;100648.63;;;22.33;15.58
49529;BME280;35423;37.320;-121.762;2023-04-05T03:00:59;100652.16;;;22.19;15.84
49529;BME280;35423;37.320;-121.762;2023-04-05T03:03:26;100652.55;;;22.52;16.04
49529;BME280;35423;37.320;-121.762;2023-04-05T03:05:57;100651.45;;;22.11;16.23
49529;BME280;35423;37.320;-121.762;2023-04-05T03:08:20;100652.28;;;21.77;16.39
49529;BME280;35423;37.320;-121.762;2023-04-05T03:10:51;100654.48;;;22.17;16.71
49529;BME280;35423;37.320;-121.762;2023-04-05T03:13:15;100656.65;;;22.05;16.79
49529;BME280;35423;37.320;-121.762;2023-04-05T03:15:42;100661.89;;;21.87;17.05
49529;BME280;35423;37.320;-121.762;2023-04-05T03:18:09;100666.08;;;21.80;17.20
49529;BME280;35423;37.320;-121.762;2023-04-05T03:20:35;100669.73;;;21.96;17.30
49529;BME280;35423;37.320;-121.762;2023-04-05T03:23:00;100673.38;;;21.64;17.47
49529;BME280;35423;37.320;-121.762;2023-04-05T03:25:26;100674.36;;;21.52;17.58
49529;BME280;35423;37.320;-121.762;2023-04-05T03:27:53;100672.52;;;21.40;17.72
49529;BME280;35423;37.320;-121.762;2023-04-05T03:30:20;100671.44;;;21.54;17.74
49529;BME280;35423;37.320;-121.762;2023-04-05T03:32:46;100671.91;;;21.17;17.86
49529;BME280;35423;37.320;-121.762;2023-04-05T03:35:12;100673.79;;;21.54;18.01
49529;BME280;35423;37.320;-121.762;2023-04-05T03:37:40;100678.08;;;21.41;18.14
49529;BME280;35423;37.320;-121.762;2023-04-05T03:40:08;100680.54;;;21.30;18.22
49529;BME280;35423;37.320;-121.762;2023-04-05T03:42:35;100680.17;;;21.00;18.39
49529;BME280;35423;37.320;-121.762;2023-04-05T03:45:07;100681.41;;;21.06;18.58
49529;BME280;35423;37.320;-121.762;2023-04-05T03:47:37;100678.21;;;21.25;18.63
49529;BME280;35423;37.320;-121.762;2023-04-05T03:50:03;100677.74;;;20.94;18.82
49529;BME280;35423;37.320;-121.762;2023-04-05T03:52:28;100679.14;;;20.80;18.92
49529;BME280;35423;37.320;-121.762;2023-04-05T03:54:54;100681.59;;;20.74;19.00
49529;BME280;35423;37.320;-121.762;2023-04-05T03:57:20;100682.48;;;20.41;19.09
49529;BME280;35423;37.320;-121.762;2023-04-05T03:59:48;100687.85;;;20.53;19.14
49529;BME280;35423;37.320;-121.762;2023-04-05T04:02:16;100695.11;;;20.46;19.25
49529;BME280;35423;37.320;-121.762;2023-04-05T04:04:42;100700.42;;;20.68;19.36
49529;BME280;35423;37.320;-121.762;2023-04-05T04:07:10;100704.29;;;20.31;19.48
49529;BME280;35423;37.320;-121.762;2023-04-05T04:09:35;100705.06;;;20.52;19.50
49529;BME280;35423;37.320;-121.762;2023-04-05T04:12:01;100704.57;;;20.20;19.56
49529;BME280;35423;37.320;-121.762;2023-04-05T04:14:27;100706.40;;;20.13;19.63
49529;BME280;35423;37.320;-121.762;2023-04-05T04:16:59;100706.98;;;20.55;19.69
49529;BME280;35423;37.320;-121.762;2023-04-05T04:19:28;100712.69;;;19.98;19.75
49529;BME280;35423;37.320;-121.762;2023-04-05T04:21:53;100717.52;;;20.17;19.83
49529;BME280;35423;37.320;-121.762;2023-04-05T04:24:18;100721.81;;;20.27;19.96
49529;BME280;35423;37.320;-121.762;2023-04-05T04:26:45;100722.80;;;19.98;19.97
49529;BME280;35423;37.320;-121.762;2023-04-05T04:29:11;100718.82;;;20.13;20.05
49529;BME280;35423;37.320;-121.762;2023-04-05T04:31:37;100718.49;;;19.79;20.03
49529;BME280;35423;37.320;-121.762;2023-04-05T04:34:04;100717.47;;;19.91;20.06
49529;BME280;35423;37.320;-121.762;2023-04-05T04:36:36;100718.88;;;19.57;20.13
49529;BME280;35423;37.320;-121.762;2023-04-05T04:39:01;100723.11;;;20.01;20.19
49529;BME280;35423;37.320;-121.762;2023-04-05T04:41:29;100724.81;;;19.40;20.29
49529;BME280;35423;37.320;-121.762;2023-04-05T04:43:54;100725.25;;;19.56;20.35
49529;BME280;35423;37.320;-121.762;2023-04-05T04:46:21;100723.76;;;19.49;20.38
49529;BME280;35423;37.320;-121.762;2023-04-05T04:49:03;100724.79;;;19.39;20.50
49529;BME280;35423;37.320;-121.762;2023-04-05T04:51:28;100724.99;;;19.28;20.54
49529;BME280;35423;37.320;-121.762;2023-04-05T04:54:02;100725.06;;;19.16;20.61
49529;BME280;35423;37.320;-121.762;2023-04-05T04:56:30;100726.17;;;19.37;20.67
49529;BME280;35423;37.320;-121.762;2023-04-05T04:58:56;100726.58;;;19.01;20.74
49529;BME280;35423;37.320;-121.762;2023-04-05T05:01:21;100729.84;;;19.16;20.81
49529;BME280;35423;37.320;-121.762;2023-04-05T05:03:47;100729.24;;;19.08;20.88
49529;BME280;35423;37.320;-121.762;2023-04-05T05:06:16;100729.97;;;19.21;20.98
49529;BME280;35423;37.320;-121.762;2023-04-05T05:08:43;100733.87;;;19.10;21.04
49529;BME280;35423;37.320;-121.762;2023-04-05T05:11:07;100736.61;;;19.01;21.06
49529;BME280;35423;37.320;-121.762;2023-04-05T05:13:38;100731.49;;;18.93;21.14
49529;BME280;35423;37.320;-121.762;2023-04-05T05:16:04;100727.54;;;18.86;21.21
49529;BME280;35423;37.320;-121.762;2023-04-05T05:18:30;100725.15;;;18.54;21.25
49529;BME280;35423;37.320;-121.762;2023-04-05T05:20:56;100724.50;;;18.46;21.32
49529;BME280;35423;37.320;-121.762;2023-04-05T05:23:21;100722.66;;;18.58;21.40
49529;BME280;35423;37.320;-121.762;2023-04-05T05:25:56;100720.67;;;18.29;21.48
49529;BME280;35423;37.320;-121.762;2023-04-05T05:28:24;100718.04;;;18.43;21.56
49529;BME280;35423;37.320;-121.762;2023-04-05T05:30:52;100716.18;;;18.37;21.64
49529;BME280;35423;37.320;-121.762;2023-04-05T05:33:25;100714.48;;;18.09;21.81
49529;BME280;35423;37.320;-121.762;2023-04-05T05:35:51;100717.28;;;18.26;21.80
49529;BME280;35423;37.320;-121.762;2023-04-05T05:38:16;100715.76;;;18.22;21.72
49529;BME280;35423;37.320;-121.762;2023-04-05T05:40:41;100712.89;;;17.97;21.88
49529;BME280;35423;37.320;-121.762;2023-04-05T05:43:14;100711.72;;;18.35;21.96
49529;BME280;35423;37.320;-121.762;2023-04-05T05:45:40;100713.34;;;18.36;21.97
49529;BME280;35423;37.320;-121.762;2023-04-05T05:48:06;100711.36;;;18.10;22.02
49529;BME280;35423;37.320;-121.762;2023-04-05T05:50:34;100714.33;;;18.37;22.04
49529;BME280;35423;37.320;-121.762;2023-04-05T05:53:01;100713.23;;;18.17;22.09
49529;BME280;35423;37.320;-121.762;2023-04-05T05:55:27;100712.80;;;18.27;22.03
49529;BME280;35423;37.320;-121.762;2023-04-05T05:57:54;100708.09;;;18.31;22.00
49529;BME280;35423;37.320;-121.762;2023-04-05T06:00:21;100704.75;;;18.32;21.99
49529;BME280;35423;37.320;-121.762;2023-04-05T06:02:52;100702.53;;;18.84;21.97
49529;BME280;35423;37.320;-121.762;2023-04-05T06:05:17;100702.60;;;18.83;22.02
49529;BME280;35423;37.320;-121.762;2023-04-05T06:07:45;100697.58;;;18.37;21.97
49529;BME280;35423;37.320;-121.762;2023-04-05T06:10:14;100696.58;;;18.56;22.07
49529;BME280;35423;37.320;-121.762;2023-04-05T06:12:38;100698.88;;;18.32;22.05
49529;BME280;35423;37.320;-121.762;2023-04-05T06:15:06;100696.89;;;18.13;22.08
49529;BME280;35423;37.320;-121.762;2023-04-05T06:17:35;100696.49;;;18.30;22.14
49529;BME280;35423;37.320;-121.762;2023-04-05T06:20:03;100691.67;;;18.46;22.16
49529;BME280;35423;37.320;-121.762;2023-04-05T06:22:38;100687.38;;;18.42;22.18
49529;BME280;35423;37.320;-121.762;2023-04-05T06:25:04;100685.58;;;18.16;22.20
49529;BME280;35423;37.320;-121.762;2023-04-05T06:27:31;100682.67;;;18.18;22.20
49529;BME280;35423;37.320;-121.762;2023-04-05T06:29:59;100682.58;;;18.35;22.28
49529;BME280;35423;37.320;-121.762;2023-04-05T06:32:27;100679.51;;;18.27;22.30
49529;BME280;35423;37.320;-121.762;2023-04-05T06:34:53;100678.43;;;18.48;22.45
49529;BME280;35423;37.320;-121.762;2023-04-05T06:37:19;100675.65;;;18.46;22.47
49529;BME280;35423;37.320;-121.762;2023-04-05T06:39:45;100675.50;;;18.11;22.49
49529;BME280;35423;37.320;-121.762;2023-04-05T06:42:14;100676.11;;;17.82;22.57
49529;BME280;35423;37.320;-121.762;2023-04-05T06:44:39;100677.33;;;18.26;22.61
49529;BME280;35423;37.320;-121.762;2023-04-05T06:47:05;100676.24;;;18.18;22.63
49529;BME280;35423;37.320;-121.762;2023-04-05T06:49:30;100678.23;;;17.80;22.70
49529;BME280;35423;37.320;-121.762;2023-04-05T06:51:57;100680.21;;;18.00;22.74
49529;BME280;35423;37.320;-121.762;2023-04-05T06:54:24;100679.48;;;17.68;22.79
49529;BME280;35423;37.320;-121.762;2023-04-05T06:56:53;100679.88;;;17.62;22.87
49529;BME280;35423;37.320;-121.762;2023-04-05T06:59:18;100681.60;;;17.38;22.85
49529;BME280;35423;37.320;-121.762;2023-04-05T07:01:53;100682.96;;;17.88;22.83
49529;BME280;35423;37.320;-121.762;2023-04-05T07:04:20;100686.37;;;17.80;22.89
49529;BME280;35423;37.320;-121.762;2023-04-05T07:06:45;100687.67;;;17.72;22.97
49529;BME280;35423;37.320;-121.762;2023-04-05T07:09:10;100684.43;;;17.68;22.94
49529;BME280;35423;37.320;-121.762;2023-04-05T07:11:38;100681.22;;;17.58;23.03
49529;BME280;35423;37.320;-121.762;2023-04-05T07:14:03;100678.69;;;17.50;23.10
49529;BME280;35423;37.320;-121.762;2023-04-05T07:16:29;100675.96;;;17.44;23.25
49529;BME280;35423;37.320;-121.762;2023-04-05T07:18:57;100673.27;;;17.39;23.23
49529;BME280;35423;37.320;-121.762;2023-04-05T07:21:24;100667.63;;;17.06;23.27
49529;BME280;35423;37.320;-121.762;2023-04-05T07:23:51;100665.40;;;17.26;23.33
49529;BME280;35423;37.320;-121.762;2023-04-05T07:26:20;100666.96;;;17.40;23.39
49529;BME280;35423;37.320;-121.762;2023-04-05T07:28:45;100670.68;;;17.33;23.45
49529;BME280;35423;37.320;-121.762;2023-04-05T07:31:22;100677.49;;;17.47;23.52
49529;BME280;35423;37.320;-121.762;2023-04-05T07:33:50;100681.10;;;17.19;23.57
49529;BME280;35423;37.320;-121.762;2023-04-05T07:36:15;100680.02;;;16.93;23.62
49529;BME280;35423;37.320;-121.762;2023-04-05T07:38:43;100680.87;;;17.07;23.71
49529;BME280;35423;37.320;-121.762;2023-04-05T07:41:11;100682.28;;;16.79;23.81
49529;BME280;35423;37.320;-121.762;2023-04-05T07:43:41;100678.58;;;17.20;23.92
49529;BME280;35423;37.320;-121.762;2023-04-05T07:46:07;100681.18;;;17.19;23.93
49529;BME280;35423;37.320;-121.762;2023-04-05T07:48:32;100682.36;;;16.66;23.95
49529;BME280;35423;37.320;-121.762;2023-04-05T07:51:03;100677.60;;;16.78;24.01
49529;BME280;35423;37.320;-121.762;2023-04-05T07:53:23;100676.45;;;16.67;24.12
49529;BME280;35423;37.320;-121.762;2023-04-05T07:55:51;100674.09;;;16.82;24.18
49529;BME280;35423;37.320;-121.762;2023-04-05T07:58:22;100677.03;;;16.50;24.26
49529;BME280;35423;37.320;-121.762;2023-04-05T08:00:49;100677.70;;;16.35;24.43
49529;BME280;35423;37.320;-121.762;2023-04-05T08:03:15;100683.54;;;16.53;24.48
49529;BME280;35423;37.320;-121.762;2023-04-05T08:05:49;100685.94;;;16.51;24.55
49529;BME280;35423;37.320;-121.762;2023-04-05T08:08:15;100685.78;;;16.42;24.64
49529;BME280;35423;37.320;-121.762;2023-04-05T08:10:40;100683.57;;;16.40;24.65
49529;BME280;35423;37.320;-121.762;2023-04-05T08:13:08;100687.74;;;16.60;24.73
49529;BME280;35423;37.320;-121.762;2023-04-05T08:15:40;100685.56;;;16.59;24.76
49529;BME280;35423;37.320;-121.762;2023-04-05T08:18:08;100685.16;;;16.80;24.79
49529;BME280;35423;37.320;-121.762;2023-04-05T08:20:38;100683.59;;;16.25;24.83
49529;BME280;35423;37.320;-121.762;2023-04-05T08:23:04;100682.54;;;16.00;24.90
49529;BME280;35423;37.320;-121.762;2023-04-05T08:25:30;100683.25;;;16.15;24.96
49529;BME280;35423;37.320;-121.762;2023-04-05T08:27:56;100679.40;;;16.29;25.06
49529;BME280;35423;37.320;-121.762;2023-04-05T08:30:25;100680.29;;;15.96;25.12
49529;BME280;35423;37.320;-121.762;2023-04-05T08:32:52;100684.72;;;15.87;25.20
49529;BME280;35423;37.320;-121.762;2023-04-05T08:35:17;100683.91;;;16.10;25.26
49529;BME280;35423;37.320;-121.762;2023-04-05T08:37:44;100684.84;;;16.05;25.33
49529;BME280;35423;37.320;-121.762;2023-04-05T08:40:11;100683.60;;;16.23;25.38
49529;BME280;35423;37.320;-121.762;2023-04-05T08:42:45;100682.46;;;16.16;25.47
49529;BME280;35423;37.320;-121.762;2023-04-05T08:45:09;100682.21;;;15.69;25.49
49529;BME280;35423;37.320;-121.762;2023-04-05T08:47:36;100680.85;;;15.65;25.61
49529;BME280;35423;37.320;-121.762;2023-04-05T08:49:59;100678.15;;;16.01;25.57
49529;BME280;35423;37.320;-121.762;2023-04-05T08:52:25;100683.23;;;16.00;25.61
49529;BME280;35423;37.320;-121.762;2023-04-05T08:54:53;100680.15;;;15.78;25.61
49529;BME280;35423;37.320;-121.762;2023-04-05T08:57:23;100679.10;;;16.09;25.64
49529;BME280;35423;37.320;-121.762;2023-04-05T08:59:45;100675.68;;;15.85;25.64
49529;BME280;35423;37.320;-121.762;2023-04-05T09:02:22;100674.06;;;15.88;25.65
49529;BME280;35423;37.320;-121.762;2023-04-05T09:04:47;100674.28;;;16.18;25.66
49529;BME280;35423;37.320;-121.762;2023-04-05T09:07:20;100675.08;;;15.95;25.63
49529;BME280;35423;37.320;-121.762;2023-04-05T09:09:51;100678.77;;;16.24;25.63
49529;BME280;35423;37.320;-121.762;2023-04-05T09:12:13;100679.24;;;16.00;25.62
49529;BME280;35423;37.320;-121.762;2023-04-05T09:14:45;100681.59;;;16.00;25.61
49529;BME280;35423;37.320;-121.762;2023-04-05T09:17:12;100677.30;;;15.98;25.63
49529;BME280;35423;37.320;-121.762;2023-04-05T09:19:41;100673.54;;;16.50;25.64
49529;BME280;35423;37.320;-121.762;2023-04-05T09:22:07;100670.49;;;15.98;25.70
49529;BME280;35423;37.320;-121.762;2023-04-05T09:24:35;100670.05;;;16.25;25.72
49529;BME280;35423;37.320;-121.762;2023-04-05T09:27:03;100668.67;;;16.01;25.73
49529;BME280;35423;37.320;-121.762;2023-04-05T09:29:29;100665.05;;;16.52;25.78
49529;BME280;35423;37.320;-121.762;2023-04-05T09:31:52;100659.06;;;16.26;25.73
49529;BME280;35423;37.320;-121.762;2023-04-05T09:34:20;100658.17;;;16.22;25.78
49529;BME280;35423;37.320;-121.762;2023-04-05T09:36:45;100656.15;;;16.21;25.81
49529;BME280;35423;37.320;-121.762;2023-04-05T09:39:12;100655.42;;;15.73;25.86
49529;BME280;35423;37.320;-121.762;2023-04-05T09:41:38;100651.61;;;16.23;25.88
49529;BME280;35423;37.320;-121.762;2023-04-05T09:44:03;100650.72;;;16.22;25.89
49529;BME280;35423;37.320;-121.762;2023-04-05T09:46:31;100651.73;;;15.71;25.95
49529;BME280;35423;37.320;-121.762;2023-04-05T09:48:56;100646.24;;;16.39;26.00
49529;BME280;35423;37.320;-121.762;2023-04-05T09:51:21;100642.84;;;16.33;26.09
49529;BME280;35423;37.320;-121.762;2023-04-05T09:53:56;100640.16;;;16.33;26.09
49529;BME280;35423;37.320;-121.762;2023-04-05T09:56:17;100640.70;;;16.09;26.08
49529;BME280;35423;37.320;-121.762;2023-04-05T09:58:44;100642.40;;;16.06;26.11
49529;BME280;35423;37.320;-121.762;2023-04-05T10:01:21;100642.27;;;16.30;26.12
49529;BME280;35423;37.320;-121.762;2023-04-05T10:03:50;100638.17;;;16.06;26.18
49529;BME280;35423;37.320;-121.762;2023-04-05T10:06:18;100640.85;;;16.05;26.23
49529;BME280;35423;37.320;-121.762;2023-04-05T10:08:44;100634.20;;;16.05;26.28
49529;BME280;35423;37.320;-121.762;2023-04-05T10:11:09;100630.17;;;16.02;26.36
49529;BME280;35423;37.320;-121.762;2023-04-05T10:13:35;100629.14;;;15.96;26.45
49529;BME280;35423;37.320;-121.762;2023-04-05T10:16:06;100626.25;;;15.64;26.52
49529;BME280;35423;37.320;-121.762;2023-04-05T10:18:41;100626.70;;;16.13;26.52
49529;BME280;35423;37.320;-121.762;2023-04-05T10:21:06;100627.14;;;16.11;26.57
49529;BME280;35423;37.320;-121.762;2023-04-05T10:23:31;100626.60;;;15.64;26.60
49529;BME280;35423;37.320;-121.762;2023-04-05T10:26:03;100630.47;;;16.16;26.60
49529;BME280;35423;37.320;-121.762;2023-04-05T10:28:29;100628.18;;;15.92;26.63
49529;BME280;35423;37.320;-121.762;2023-04-05T10:30:57;100628.42;;;16.12;26.69
49529;BME280;35423;37.320;-121.762;2023-04-05T10:33:24;100627.98;;;15.86;26.74
49529;BME280;35423;37.320;-121.762;2023-04-05T10:35:57;100626.26;;;15.56;26.82
49529;BME280;35423;37.320;-121.762;2023-04-05T10:38:22;100625.20;;;15.79;26.85
49529;BME280;35423;37.320;-121.762;2023-04-05T10:40:44;100623.80;;;16.01;26.87
49529;BME280;35423;37.320;-121.762;2023-04-05T10:43:07;100620.39;;;16.03;26.85
49529;BME280;35423;37.320;-121.762;2023-04-05T10:45:31;100618.25;;;15.81;26.88
49529;BME280;35423;37.320;-121.762;2023-04-05T10:48:01;100613.22;;;15.78;26.90
49529;BME280;35423;37.320;-121.762;2023-04-05T10:50:23;100614.22;;;15.73;26.97
49529;BME280;35423;37.320;-121.762;2023-04-05T10:52:48;100611.24;;;15.94;26.99
49529;BME280;35423;37.320;-121.762;2023-04-05T10:55:12;100610.74;;;15.87;27.05
49529;BME280;35423;37.320;-121.762;2023-04-05T10:57:39;100610.05;;;15.80;27.11
49529;BME280;35423;37.320;-121.762;2023-04-05T11:00:05;100608.44;;;15.53;27.19
49529;BME280;35423;37.320;-121.762;2023-04-05T11:02:33;100609.54;;;15.47;27.21
49529;BME280;35423;37.320;-121.762;2023-04-05T11:05:03;100607.67;;;15.65;27.27
49529;BME280;35423;37.320;-121.762;2023-04-05T11:10:00;100611.78;;;15.57;27.34
49529;BME280;35423;37.320;-121.762;2023-04-05T11:14:52;100614.76;;;15.49;27.31
49529;BME280;35423;37.320;-121.762;2023-04-05T11:17:25;100614.96;;;15.48;27.26
49529;BME280;35423;37.320;-121.762;2023-04-05T11:19:49;100617.08;;;15.41;27.24
49529;BME280;35423;37.320;-121.762;2023-04-05T11:22:24;100620.17;;;15.09;27.32
49529;BME280;35423;37.320;-121.762;2023-04-05T11:24:49;100618.12;;;15.22;27.42
49529;BME280;35423;37.320;-121.762;2023-04-05T11:27:09;100615.47;;;15.16;27.47
49529;BME280;35423;37.320;-121.762;2023-04-05T11:32:05;100611.49;;;15.20;27.48
49529;BME280;35423;37.320;-121.762;2023-04-05T11:34:26;100615.84;;;14.77;27.52
49529;BME280;35423;37.320;-121.762;2023-04-05T11:37:00;100619.67;;;14.88;27.59
49529;BME280;35423;37.320;-121.762;2023-04-05T11:39:42;100619.47;;;14.95;27.67
49529;BME280;35423;37.320;-121.762;2023-04-05T11:42:10;100619.04;;;14.83;27.71
49529;BME280;35423;37.320;-121.762;2023-04-05T11:44:41;100617.40;;;14.71;27.78
49529;BME280;35423;37.320;-121.762;2023-04-05T11:47:00;100615.29;;;14.13;27.83
49529;BME280;35423;37.320;-121.762;2023-04-05T11:49:26;100615.49;;;14.32;27.82
49529;BME280;35423;37.320;-121.762;2023-04-05T11:51:56;100613.58;;;14.26;27.86
49529;BME280;35423;37.320;-121.762;2023-04-05T11:54:29;100614.59;;;14.36;27.99
49529;BME280;35423;37.320;-121.762;2023-04-05T11:56:51;100613.98;;;14.29;28.02
49529;BME280;35423;37.320;-121.762;2023-04-05T11:59:14;100613.92;;;14.21;28.09
49529;BME280;35423;37.320;-121.762;2023-04-05T12:01:44;100612.21;;;13.91;28.17
49529;BME280;35423;37.320;-121.762;2023-04-05T12:04:13;100611.52;;;14.07;28.24
49529;BME280;35423;37.320;-121.762;2023-04-05T12:06:42;100606.87;;;14.00;28.29
49529;BME280;35423;37.320;-121.762;2023-04-05T12:09:09;100604.72;;;13.93;28.31
49529;BME280;35423;37.320;-121.762;2023-04-05T12:11:34;100606.16;;;13.85;28.36
49529;BME280;35423;37.320;-121.762;2023-04-05T12:14:07;100608.85;;;13.79;28.38
49529;BME280;35423;37.320;-121.762;2023-04-05T12:16:27;100609.33;;;13.94;28.54
49529;BME280;35423;37.320;-121.762;2023-04-05T12:18:56;100609.37;;;13.88;28.61
49529;BME280;35423;37.320;-121.762;2023-04-05T12:21:20;100606.01;;;13.65;28.63
49529;BME280;35423;37.320;-121.762;2023-04-05T12:23:49;100605.44;;;13.60;28.67
49529;BME280;35423;37.320;-121.762;2023-04-05T12:26:15;100606.71;;;13.80;28.71
49529;BME280;35423;37.320;-121.762;2023-04-05T12:28:48;100608.81;;;13.57;28.72
49529;BME280;35423;37.320;-121.762;2023-04-05T12:31:09;100606.52;;;13.76;28.75
49529;BME280;35423;37.320;-121.762;2023-04-05T12:33:41;100606.46;;;13.50;28.79